Terminal Aerodrome Forecast
Issued by NWS

Home | Current Version | Previous Version | Text Only | Print | Product List | Glossary On
Versions: 1 2 3 4 5 6 7 8 9 10 11 12 13 14 15 16 17 18
720
FTUS43 KDTX 262325
TAFMBS
TAF
KMBS 262325Z 2700/2724 VRB03KT P6SM BKN200
     FM271300 14005KT P6SM SCT080 BKN120 OVC200
     FM271600 18007KT 6SM -SHRA OVC050 PROB30 2716/2720 4SM RA
      OVC030
     FM272100 14005KT P6SM SCT080 OVC120=

USA.gov is the U.S. government's official web portal to all federal, state and local government web resources and services.